CYFC

Fredericton Airport

Fredericton, New Brunswick, Canada
METAR CYFC 230700Z AUTO 36005KT 9SM CLR M10/M14 A3073 RMK SLP408
Observed Flight Rules
Feb-23 @ 07:00 UTC (an hour ago) Visual Flight Rules
Wind Visibility Clouds
360° at 5 knots 9 miles
  • Clear skies
Temperatures Readings
Current -10°C / 14°F
Dewpoint -14°C / 7°F
Humidity 73%
Altimeter 30.73" Hg
Pressure 1040.8 hPa
Elevation 20
METAR CYFC 230700Z AUTO 36005KT 9SM CLR M10/M14 A3073 RMK SLP408
Observed Flight Rules
Feb-23 @ 07:00 UTC
(an hour ago)
VFR
Wind Visibility
360° at 5 knots 9 miles
Clouds
  • Clear skies
Temperature Dewpoint
-10°C / 14°F -14°C / 7°F
Humidity Altimeter Pressure
73% 30.73" Hg 1040.8 hPa